Time;durP1;ratioP1;P1;durP2;ratioP2;P2;SDS_P1;SDS_P2;PMS_P1;PMS_P2;Temp;Humidity;BMP_temperature;BMP_pressure;BME280_temperature;BME280_humidity;BME280_pressure;Samples;Min_cycle;Max_cycle;Signal;HPM_P1;HPM_P2
2023/08/01 17:12:41;;;;;;;1.60;1.03;;;20.20;99.90;;;;;;5102687;28;20626;-42
2023/08/01 17:15:29;;;;;;;7.27;1.07;;;20.00;99.90;;;;;;5083739;28;20677;-44
2023/08/01 17:17:55;;;;;;;6.70;1.00;;;20.00;99.90;;;;;;5118650;28;20163;-50
2023/08/01 17:20:21;;;;;;;3.30;1.20;;;19.90;99.90;;;;;;5120325;28;20198;-51
2023/08/01 17:22:47;;;;;;;2.33;1.20;;;19.90;99.90;;;;;;5119401;28;20174;-50
2023/08/01 17:25:13;;;;;;;4.93;1.63;;;19.90;99.90;;;;;;5100343;28;20190;-50
2023/08/01 17:27:39;;;;;;;3.27;1.03;;;19.80;99.90;;;;;;5119138;28;20182;-48
2023/08/01 17:30:05;;;;;;;3.57;1.30;;;19.80;99.90;;;;;;5118655;28;20265;-48
2023/08/01 17:32:39;;;;;;;2.07;1.17;;;19.80;99.90;;;;;;5118607;28;20210;-45
2023/08/01 17:35:05;;;;;;;4.17;1.50;;;19.80;99.90;;;;;;5101529;28;20154;-43
2023/08/01 17:37:30;;;;;;;3.50;1.60;;;19.80;99.90;;;;;;5100126;28;20632;-48
2023/08/01 17:39:57;;;;;;;4.13;1.07;;;19.80;99.90;;;;;;5100393;28;20210;-49
2023/08/01 17:42:23;;;;;;;3.03;1.20;;;19.80;99.90;;;;;;5100195;28;20190;-48
2023/08/01 17:44:49;;;;;;;5.07;1.57;;;19.70;99.90;;;;;;5118587;28;20177;-48
2023/08/01 17:47:18;;;;;;;3.77;1.43;;;19.70;99.90;;;;;;5118238;28;20198;-43
2023/08/01 17:49:45;;;;;;;4.53;1.77;;;19.60;99.90;;;;;;5100028;28;20270;-50
2023/08/01 17:52:11;;;;;;;4.17;1.53;;;19.60;99.90;;;;;;5118337;28;20190;-44
2023/08/01 17:54:36;;;;;;;4.10;1.30;;;19.50;99.90;;;;;;5100134;28;20186;-49
2023/08/01 17:57:02;;;;;;;6.77;1.63;;;19.50;99.90;;;;;;5118077;28;20228;-43
2023/08/01 17:59:30;;;;;;;3.67;1.33;;;19.40;99.90;;;;;;5118251;28;20193;-43
2023/08/01 18:01:56;;;;;;;4.67;1.70;;;19.40;99.90;;;;;;5099714;28;20202;-49
2023/08/01 18:04:22;;;;;;;6.90;1.30;;;19.30;99.90;;;;;;5117751;28;20680;-48
2023/08/01 18:06:48;;;;;;;2.40;1.10;;;19.30;99.90;;;;;;5099584;28;20206;-46
2023/08/01 18:09:23;;;;;;;2.17;1.03;;;19.30;99.90;;;;;;5117899;28;20249;-44
2023/08/01 18:11:49;;;;;;;6.80;1.63;;;19.20;99.90;;;;;;5099304;28;20189;-50
2023/08/01 18:14:15;;;;;;;2.97;1.13;;;19.20;99.90;;;;;;5099319;28;20194;-48
2023/08/01 18:16:56;;;;;;;5.50;1.07;;;19.20;99.90;;;;;;5099356;28;20217;-44
2023/08/01 18:19:23;;;;;;;6.70;1.10;;;19.10;99.90;;;;;;5117064;28;20163;-49
2023/08/01 18:21:49;;;;;;;5.80;1.40;;;19.10;99.90;;;;;;5098448;28;20205;-49
2023/08/01 18:24:37;;;;;;;3.73;1.20;;;19.00;99.90;;;;;;5099077;28;20189;-43
2023/08/01 18:27:04;;;;;;;5.07;1.20;;;19.00;99.90;;;;;;5088140;28;20204;-48
2023/08/01 18:29:30;;;;;;;5.10;1.70;;;18.90;99.90;;;;;;5117812;28;20171;-48
2023/08/01 18:31:56;;;;;;;5.43;1.67;;;18.90;99.90;;;;;;5099247;28;20221;-49
2023/08/01 18:34:22;;;;;;;3.87;1.20;;;18.80;99.90;;;;;;5099179;28;20218;-49
2023/08/01 18:36:54;;;;;;;4.20;1.47;;;18.80;99.90;;;;;;5117665;28;20229;-45
2023/08/01 18:39:20;;;;;;;5.57;1.63;;;18.60;99.90;;;;;;5099007;28;20197;-46
2023/08/01 18:41:46;;;;;;;4.00;1.50;;;18.50;99.90;;;;;;5117455;28;20637;-48
2023/08/01 18:44:11;;;;;;;4.30;1.50;;;18.40;99.90;;;;;;5117389;28;20614;-49
2023/08/01 18:46:41;;;;;;;5.00;1.37;;;18.30;99.90;;;;;;5117325;28;20198;-43
2023/08/01 18:49:07;;;;;;;4.30;1.57;;;18.20;99.90;;;;;;5098951;28;20186;-45
2023/08/01 18:51:32;;;;;;;5.33;1.60;;;18.10;99.90;;;;;;5098819;28;20190;-43
2023/08/01 18:53:58;;;;;;;5.03;2.00;;;18.10;99.90;;;;;;5098824;28;20186;-49
2023/08/01 18:56:24;;;;;;;6.17;1.50;;;18.00;99.90;;;;;;5098672;28;20210;-49
2023/08/01 18:58:50;;;;;;;5.17;1.67;;;18.00;99.90;;;;;;5117527;28;20209;-47
2023/08/01 19:01:19;;;;;;;5.07;1.93;;;18.00;99.90;;;;;;5098575;28;20213;-46
2023/08/01 19:03:45;;;;;;;4.73;1.33;;;18.00;99.90;;;;;;5117056;28;20185;-48
2023/08/01 19:06:14;;;;;;;6.67;1.47;;;17.90;99.90;;;;;;5116778;28;20217;-50
2023/08/01 19:08:40;;;;;;;5.70;1.97;;;17.90;99.90;;;;;;5117069;28;20174;-47
2023/08/01 19:11:06;;;;;;;3.90;1.60;;;17.90;99.90;;;;;;5098357;28;20221;-48
2023/08/01 19:13:32;;;;;;;5.33;1.60;;;17.90;99.90;;;;;;5098365;28;20206;-47
2023/08/01 19:15:59;;;;;;;3.30;1.30;;;17.90;99.90;;;;;;5098458;28;20626;-47
2023/08/01 19:18:28;;;;;;;5.63;1.50;;;17.80;99.90;;;;;;5098596;28;20664;-42
2023/08/01 19:20:54;;;;;;;4.00;1.40;;;17.80;99.90;;;;;;5098294;28;20241;-45
2023/08/01 19:23:20;;;;;;;5.53;1.83;;;17.70;99.90;;;;;;5098420;28;20187;-46
2023/08/01 19:25:53;;;;;;;6.63;1.80;;;17.70;99.90;;;;;;5116611;28;20587;-50
2023/08/01 19:28:20;;;;;;;6.50;2.00;;;17.70;99.90;;;;;;5115928;28;20186;-43
2023/08/01 19:30:47;;;;;;;5.20;1.43;;;17.70;99.90;;;;;;5098130;28;20197;-49
2023/08/01 19:33:13;;;;;;;4.93;1.20;;;17.70;99.90;;;;;;5116910;28;20174;-43
2023/08/01 19:35:43;;;;;;;3.90;1.73;;;17.60;99.90;;;;;;5117117;28;20550;-47
2023/08/01 19:38:09;;;;;;;3.97;1.43;;;17.60;99.90;;;;;;5098126;28;20210;-49
2023/08/01 19:40:43;;;;;;;4.57;1.50;;;17.60;99.90;;;;;;5116189;28;20234;-44
2023/08/01 19:43:09;;;;;;;2.87;1.67;;;17.50;99.90;;;;;;5081182;28;20190;-48
2023/08/01 19:45:36;;;;;;;4.20;1.43;;;17.50;99.90;;;;;;5116093;28;20202;-45
2023/08/01 19:48:03;;;;;;;5.43;1.80;;;17.50;99.90;;;;;;5116141;28;20184;-43
2023/08/01 19:50:29;;;;;;;6.13;1.83;;;17.40;99.90;;;;;;5097779;28;20665;-48
2023/08/01 19:52:56;;;;;;;3.60;1.33;;;17.40;99.90;;;;;;5116252;28;20243;-44
2023/08/01 19:55:21;;;;;;;6.00;1.70;;;17.30;99.90;;;;;;5097533;28;20565;-44
2023/08/01 19:57:47;;;;;;;6.20;1.43;;;17.30;99.90;;;;;;5097459;28;20197;-45
2023/08/01 20:00:13;;;;;;;5.33;1.50;;;17.20;99.90;;;;;;5115793;28;20526;-52
2023/08/01 20:02:53;;;;;;;5.10;1.93;;;17.10;99.90;;;;;;5115967;28;20178;-47
2023/08/01 20:05:19;;;;;;;3.10;1.40;;;17.10;99.90;;;;;;5096853;28;20182;-48
2023/08/01 20:07:45;;;;;;;7.30;1.47;;;17.00;99.90;;;;;;5097498;28;20672;-43
2023/08/01 20:10:11;;;;;;;9.83;1.80;;;17.00;99.90;;;;;;5115553;28;20174;-48
2023/08/01 20:12:37;;;;;;;5.13;1.67;;;17.00;99.90;;;;;;5097364;28;20206;-50
2023/08/01 20:15:06;;;;;;;4.80;1.57;;;16.90;99.90;;;;;;5080517;28;20719;-43
2023/08/01 20:17:31;;;;;;;4.13;1.47;;;16.90;99.90;;;;;;5097086;28;20206;-48
2023/08/01 20:19:57;;;;;;;7.00;1.77;;;16.90;99.90;;;;;;5097083;28;20269;-49
2023/08/01 20:22:23;;;;;;;4.87;1.57;;;16.80;99.90;;;;;;5115270;28;20359;-44
2023/08/01 20:24:48;;;;;;;4.47;1.60;;;16.80;99.90;;;;;;5115458;28;20187;-44
2023/08/01 20:27:14;;;;;;;3.83;1.70;;;16.90;99.90;;;;;;5097263;28;20229;-50
2023/08/01 20:29:40;;;;;;;3.40;1.53;;;16.80;99.90;;;;;;5115403;28;20213;-46
2023/08/01 20:32:07;;;;;;;4.80;1.70;;;16.80;99.90;;;;;;5096205;28;20666;-44
2023/08/01 20:34:34;;;;;;;8.33;1.87;;;16.80;99.90;;;;;;5096032;28;20194;-43
2023/08/01 20:36:59;;;;;;;6.60;1.77;;;16.70;99.90;;;;;;5115192;28;20247;-44
2023/08/01 20:39:30;;;;;;;3.00;1.40;;;16.70;99.90;;;;;;5114475;28;20186;-44
2023/08/01 20:41:56;;;;;;;3.63;1.50;;;16.70;99.90;;;;;;5093256;28;20214;-43
2023/08/01 20:44:22;;;;;;;3.67;1.43;;;16.70;99.90;;;;;;5095192;28;20596;-44
2023/08/01 20:46:47;;;;;;;4.10;1.37;;;16.70;99.90;;;;;;5114115;28;20228;-45
2023/08/01 20:49:13;;;;;;;3.17;1.50;;;16.70;99.90;;;;;;5095755;28;20182;-44
2023/08/01 20:51:39;;;;;;;3.33;1.50;;;16.70;99.90;;;;;;5114138;28;20189;-45
2023/08/01 20:54:04;;;;;;;7.40;1.50;;;16.70;99.90;;;;;;5095805;28;20232;-43
2023/08/01 20:56:30;;;;;;;3.53;1.40;;;16.60;99.90;;;;;;5095673;28;20216;-44
2023/08/01 20:58:56;;;;;;;5.23;1.90;;;16.60;99.90;;;;;;5095955;28;20197;-43
2023/08/01 21:01:21;;;;;;;5.47;1.73;;;16.60;99.90;;;;;;5114238;28;20213;-44
2023/08/01 21:03:47;;;;;;;2.33;1.23;;;16.60;99.90;;;;;;5095850;28;20189;-43
2023/08/01 21:06:15;;;;;;;4.80;1.70;;;16.50;99.90;;;;;;5113920;28;20218;-43
2023/08/01 21:08:43;;;;;;;2.67;1.57;;;16.50;99.90;;;;;;5096071;28;20178;-45
2023/08/01 21:11:23;;;;;;;4.63;1.83;;;16.40;99.90;;;;;;5114446;28;20217;-44
2023/08/01 21:14:08;;;;;;;4.80;1.50;;;16.40;99.90;;;;;;5114057;28;20556;-44
2023/08/01 21:16:38;;;;;;;5.13;1.73;;;16.30;99.90;;;;;;5096457;28;20282;-43
2023/08/01 21:19:15;;;;;;;6.30;1.67;;;16.30;99.90;;;;;;5095920;28;20555;-43
2023/08/01 21:21:49;;;;;;;5.30;1.60;;;16.30;99.90;;;;;;5113175;28;20210;-42
2023/08/01 21:24:17;;;;;;;4.97;2.17;;;16.30;99.90;;;;;;5095831;28;20162;-43
2023/08/01 21:26:43;;;;;;;5.83;1.77;;;16.30;99.90;;;;;;5095718;28;20297;-48
2023/08/01 21:29:08;;;;;;;2.73;1.33;;;16.30;99.90;;;;;;5113723;28;20198;-49
2023/08/01 21:31:34;;;;;;;3.37;1.63;;;16.30;99.90;;;;;;5114466;28;20178;-49
2023/08/01 21:34:00;;;;;;;3.60;1.80;;;16.30;99.90;;;;;;5113737;28;20261;-49
2023/08/01 21:36:25;;;;;;;5.33;1.73;;;16.20;99.90;;;;;;5113888;28;20561;-50
2023/08/01 21:38:51;;;;;;;4.77;1.90;;;16.20;99.90;;;;;;5113867;28;20189;-50
2023/08/01 21:41:17;;;;;;;5.30;1.90;;;16.20;99.90;;;;;;5113577;28;20205;-50
2023/08/01 21:43:43;;;;;;;3.63;1.70;;;16.20;99.90;;;;;;5113540;28;20186;-50
2023/08/01 21:46:09;;;;;;;5.40;1.73;;;16.20;99.90;;;;;;5114038;28;20681;-49
2023/08/01 21:48:35;;;;;;;3.10;2.13;;;16.20;99.90;;;;;;5095651;28;20251;-49
2023/08/01 21:51:02;;;;;;;4.00;1.77;;;16.20;99.90;;;;;;5113733;28;20262;-49
2023/08/01 21:53:27;;;;;;;5.33;2.07;;;16.20;99.90;;;;;;5095266;28;20218;-49
2023/08/01 21:55:53;;;;;;;6.43;1.67;;;16.10;99.90;;;;;;5116724;28;20291;-49
2023/08/01 21:58:19;;;;;;;5.27;1.93;;;16.10;99.90;;;;;;5098982;28;20186;-48
2023/08/01 22:00:45;;;;;;;6.30;2.00;;;16.10;99.90;;;;;;5098843;28;20202;-49
2023/08/01 22:03:12;;;;;;;6.57;1.87;;;16.10;99.90;;;;;;5117284;28;20260;-48
2023/08/01 22:05:38;;;;;;;6.53;2.17;;;16.10;99.90;;;;;;5098745;28;20213;-49
2023/08/01 22:08:05;;;;;;;4.03;1.70;;;16.10;99.90;;;;;;5117306;28;20205;-48
2023/08/01 22:10:31;;;;;;;13.93;2.53;;;16.10;99.90;;;;;;5098782;28;20190;-48
2023/08/01 22:12:58;;;;;;;8.43;1.93;;;16.00;99.90;;;;;;5098728;28;20614;-49
2023/08/01 22:15:24;;;;;;;9.27;1.90;;;16.00;99.90;;;;;;5098502;28;20190;-49
2023/08/01 22:17:50;;;;;;;6.60;1.80;;;16.00;99.90;;;;;;5099129;28;20701;-49
2023/08/01 22:20:16;;;;;;;3.50;1.60;;;16.00;99.90;;;;;;5081767;28;20272;-49
2023/08/01 22:22:42;;;;;;;5.33;1.83;;;16.00;99.90;;;;;;5116723;28;20198;-50
2023/08/01 22:25:08;;;;;;;3.70;1.40;;;16.00;99.90;;;;;;5098276;28;20664;-49
2023/08/01 22:27:33;;;;;;;5.10;1.77;;;16.00;99.90;;;;;;5117364;28;20205;-49
2023/08/01 22:29:59;;;;;;;6.73;2.00;;;16.00;99.90;;;;;;5116843;28;20262;-49
2023/08/01 22:32:26;;;;;;;4.80;1.80;;;16.00;99.90;;;;;;5098235;28;20193;-48
2023/08/01 22:34:51;;;;;;;5.77;1.47;;;16.00;99.90;;;;;;5117085;28;20186;-49
2023/08/01 22:37:17;;;;;;;7.10;1.77;;;16.00;99.90;;;;;;5116409;28;20263;-48
2023/08/01 22:39:43;;;;;;;3.80;1.70;;;16.00;99.90;;;;;;5116657;28;20546;-48
2023/08/01 22:42:09;;;;;;;8.17;1.77;;;16.00;99.90;;;;;;5098043;28;20202;-49
2023/08/01 22:44:35;;;;;;;4.70;1.60;;;16.00;99.90;;;;;;5116940;28;20185;-47
2023/08/01 22:47:01;;;;;;;6.53;1.80;;;16.00;99.90;;;;;;5116343;28;20204;-49
2023/08/01 22:49:27;;;;;;;5.13;1.37;;;16.00;99.90;;;;;;5116127;28;20202;-48
2023/08/01 22:51:53;;;;;;;7.67;1.87;;;15.90;99.90;;;;;;5097855;28;20218;-50
2023/08/01 22:54:18;;;;;;;15.93;1.63;;;15.90;99.90;;;;;;5097929;28;20198;-49
2023/08/01 22:56:44;;;;;;;3.53;1.60;;;15.90;99.90;;;;;;5116004;28;20202;-49
2023/08/01 22:59:09;;;;;;;4.80;1.40;;;15.90;99.90;;;;;;5116718;28;20621;-48
2023/08/01 23:01:35;;;;;;;5.13;1.50;;;15.80;99.90;;;;;;5097825;28;20205;-49
2023/08/01 23:04:01;;;;;;;4.07;1.77;;;15.80;99.90;;;;;;5098020;28;20518;-50
2023/08/01 23:06:27;;;;;;;5.03;1.40;;;15.70;99.90;;;;;;5115517;28;20190;-48
2023/08/01 23:08:52;;;;;;;2.17;1.23;;;15.70;99.90;;;;;;5116115;28;20224;-50
2023/08/01 23:11:18;;;;;;;2.97;1.30;;;15.60;99.90;;;;;;5097736;28;20190;-50
2023/08/01 23:13:47;;;;;;;7.63;2.27;;;15.60;99.90;;;;;;5115725;28;20217;-48
2023/08/01 23:16:13;;;;;;;3.73;1.40;;;15.50;99.90;;;;;;5115873;28;20218;-48
2023/08/01 23:18:38;;;;;;;6.07;1.47;;;15.50;99.90;;;;;;5116292;28;20592;-49
2023/08/01 23:21:04;;;;;;;3.07;1.53;;;15.40;99.90;;;;;;5116090;28;20281;-50
2023/08/01 23:23:31;;;;;;;5.80;1.50;;;15.40;99.90;;;;;;5116001;28;20193;-47
2023/08/01 23:26:10;;;;;;;6.10;1.10;;;15.40;99.90;;;;;;5116593;28;20273;-44
2023/08/01 23:28:37;;;;;;;5.20;1.27;;;15.30;99.90;;;;;;5098414;28;20577;-47
2023/08/01 23:31:06;;;;;;;5.97;1.53;;;15.30;99.90;;;;;;5097914;28;20224;-49
2023/08/01 23:33:32;;;;;;;2.53;1.40;;;15.30;99.90;;;;;;5116284;28;20654;-47
2023/08/01 23:35:58;;;;;;;4.60;1.20;;;15.20;99.90;;;;;;5097906;28;20256;-47
2023/08/01 23:38:43;;;;;;;3.60;1.33;;;15.20;99.90;;;;;;5117154;28;20265;-44
2023/08/01 23:41:13;;;;;;;4.03;1.80;;;15.10;99.90;;;;;;5116099;28;20220;-48
2023/08/01 23:43:39;;;;;;;8.87;1.50;;;15.10;99.90;;;;;;5097850;28;20229;-47
2023/08/01 23:46:05;;;;;;;5.57;1.60;;;15.10;99.90;;;;;;5097822;28;20572;-44
2023/08/01 23:48:31;;;;;;;3.73;1.40;;;15.10;99.90;;;;;;5116167;28;20174;-44
2023/08/01 23:50:57;;;;;;;3.20;1.43;;;15.10;99.90;;;;;;5116071;28;20171;-48
2023/08/01 23:53:33;;;;;;;3.07;1.20;;;15.10;99.90;;;;;;5116017;28;20684;-43
2023/08/01 23:55:59;;;;;;;3.53;1.50;;;15.10;99.90;;;;;;5115729;28;20206;-42
2023/08/01 23:58:28;;;;;;;2.47;1.50;;;15.10;99.90;;;;;;5098399;28;20327;-48
